Terminal Aerodrome Forecast
Issued by NWS

Home | Current Version | Previous Version | Text Only | Print | Product List | Glossary Off
Versions: 1 2 3 4 5 6 7 8 9 10 11 12 13 14 15 16 17 18 19 20 21

975
FTUS43 KGRB 080852 AAA
TAFCWA
TAF AMD
KCWA 080852Z 0809/0906 27009G14KT P6SM OVC018
     FM081600 29009G15KT P6SM BKN021
     FM090000 26004KT 1 1/2SM -SN OVC012
     FM090400 29007KT 4SM -SN OVC016
      AMD LTD TO CLD VIS AND WIND TIL 081200=

USA.gov is the U.S. government's official web portal to all federal, state and local government web resources and services.